sensor_id;sensor_type;location;lat;lon;timestamp;P1;durP1;ratioP1;P2;durP2;ratioP2
20888;SDS011;10604;51.976;7.594;2022-09-09T00:04:46;4.10;;;1.63;;
20888;SDS011;10604;51.976;7.594;2022-09-09T00:07:20;4.50;;;1.80;;
20888;SDS011;10604;51.976;7.594;2022-09-09T00:10:06;2.92;;;1.65;;
20888;SDS011;10604;51.976;7.594;2022-09-09T00:16:10;3.70;;;1.70;;
20888;SDS011;10604;51.976;7.594;2022-09-09T00:18:51;3.40;;;1.60;;
20888;SDS011;10604;51.976;7.594;2022-09-09T00:21:23;4.55;;;1.52;;
20888;SDS011;10604;51.976;7.594;2022-09-09T00:23:56;3.28;;;1.42;;
20888;SDS011;10604;51.976;7.594;2022-09-09T00:26:43;2.72;;;1.20;;
20888;SDS011;10604;51.976;7.594;2022-09-09T00:31:55;3.35;;;1.40;;
20888;SDS011;10604;51.976;7.594;2022-09-09T00:34:24;3.33;;;1.33;;
20888;SDS011;10604;51.976;7.594;2022-09-09T00:36:53;4.93;;;1.47;;
20888;SDS011;10604;51.976;7.594;2022-09-09T00:53:19;3.05;;;1.30;;
20888;SDS011;10604;51.976;7.594;2022-09-09T00:56:05;3.67;;;1.60;;
20888;SDS011;10604;51.976;7.594;2022-09-09T00:58:38;2.25;;;1.30;;
20888;SDS011;10604;51.976;7.594;2022-09-09T01:01:10;2.70;;;1.37;;
20888;SDS011;10604;51.976;7.594;2022-09-09T01:11:49;2.30;;;1.25;;
20888;SDS011;10604;51.976;7.594;2022-09-09T01:14:30;3.88;;;1.50;;
20888;SDS011;10604;51.976;7.594;2022-09-09T01:16:58;2.15;;;1.27;;
20888;SDS011;10604;51.976;7.594;2022-09-09T01:27:51;3.67;;;1.60;;
20888;SDS011;10604;51.976;7.594;2022-09-09T01:30:21;2.07;;;1.23;;
20888;SDS011;10604;51.976;7.594;2022-09-09T01:32:49;2.37;;;1.33;;
20888;SDS011;10604;51.976;7.594;2022-09-09T01:35:27;3.05;;;1.27;;
20888;SDS011;10604;51.976;7.594;2022-09-09T01:37:55;2.45;;;1.27;;
20888;SDS011;10604;51.976;7.594;2022-09-09T01:40:20;2.70;;;1.20;;
20888;SDS011;10604;51.976;7.594;2022-09-09T01:42:46;2.20;;;1.20;;
20888;SDS011;10604;51.976;7.594;2022-09-09T01:45:11;2.25;;;1.20;;
20888;SDS011;10604;51.976;7.594;2022-09-09T01:47:37;1.97;;;1.00;;
20888;SDS011;10604;51.976;7.594;2022-09-09T01:50:02;2.30;;;1.05;;
20888;SDS011;10604;51.976;7.594;2022-09-09T01:52:28;1.87;;;1.30;;
20888;SDS011;10604;51.976;7.594;2022-09-09T01:54:55;1.70;;;1.02;;
20888;SDS011;10604;51.976;7.594;2022-09-09T01:57:28;1.88;;;1.30;;
20888;SDS011;10604;51.976;7.594;2022-09-09T02:00:08;2.63;;;1.30;;
20888;SDS011;10604;51.976;7.594;2022-09-09T02:05:34;2.63;;;1.20;;
20888;SDS011;10604;51.976;7.594;2022-09-09T02:08:09;2.53;;;1.35;;
20888;SDS011;10604;51.976;7.594;2022-09-09T02:10:44;2.00;;;1.30;;
20888;SDS011;10604;51.976;7.594;2022-09-09T02:13:14;3.03;;;1.27;;
20888;SDS011;10604;51.976;7.594;2022-09-09T02:18:13;2.88;;;1.30;;
20888;SDS011;10604;51.976;7.594;2022-09-09T02:20:43;2.60;;;1.60;;
20888;SDS011;10604;51.976;7.594;2022-09-09T02:23:10;2.30;;;1.50;;
20888;SDS011;10604;51.976;7.594;2022-09-09T02:25:37;1.65;;;1.27;;
20888;SDS011;10604;51.976;7.594;2022-09-09T02:28:06;2.78;;;1.33;;
20888;SDS011;10604;51.976;7.594;2022-09-09T02:30:35;1.80;;;1.27;;
20888;SDS011;10604;51.976;7.594;2022-09-09T02:33:03;1.45;;;1.33;;
20888;SDS011;10604;51.976;7.594;2022-09-09T02:35:32;2.95;;;1.50;;
20888;SDS011;10604;51.976;7.594;2022-09-09T02:38:03;2.45;;;1.35;;
20888;SDS011;10604;51.976;7.594;2022-09-09T02:40:34;1.43;;;1.33;;
20888;SDS011;10604;51.976;7.594;2022-09-09T02:42:59;2.33;;;1.43;;
20888;SDS011;10604;51.976;7.594;2022-09-09T02:45:26;2.70;;;1.37;;
20888;SDS011;10604;51.976;7.594;2022-09-09T02:53:29;2.15;;;1.50;;
20888;SDS011;10604;51.976;7.594;2022-09-09T02:56:05;2.17;;;1.70;;
20888;SDS011;10604;51.976;7.594;2022-09-09T02:58:37;2.97;;;1.60;;
20888;SDS011;10604;51.976;7.594;2022-09-09T03:01:04;4.25;;;1.80;;
20888;SDS011;10604;51.976;7.594;2022-09-09T03:03:30;2.90;;;1.85;;
20888;SDS011;10604;51.976;7.594;2022-09-09T03:05:56;2.38;;;2.08;;
20888;SDS011;10604;51.976;7.594;2022-09-09T03:08:22;2.63;;;2.10;;
20888;SDS011;10604;51.976;7.594;2022-09-09T03:10:47;2.22;;;1.80;;
20888;SDS011;10604;51.976;7.594;2022-09-09T03:13:12;2.90;;;2.30;;
20888;SDS011;10604;51.976;7.594;2022-09-09T03:15:40;3.63;;;2.30;;
20888;SDS011;10604;51.976;7.594;2022-09-09T03:18:05;3.20;;;2.60;;
20888;SDS011;10604;51.976;7.594;2022-09-09T03:20:31;3.53;;;2.40;;
20888;SDS011;10604;51.976;7.594;2022-09-09T03:22:56;3.57;;;2.80;;
20888;SDS011;10604;51.976;7.594;2022-09-09T03:25:22;3.08;;;2.58;;
20888;SDS011;10604;51.976;7.594;2022-09-09T03:27:49;3.70;;;2.50;;
20888;SDS011;10604;51.976;7.594;2022-09-09T03:30:20;3.43;;;2.63;;
20888;SDS011;10604;51.976;7.594;2022-09-09T03:32:46;3.50;;;2.70;;
20888;SDS011;10604;51.976;7.594;2022-09-09T03:35:11;3.67;;;2.70;;
20888;SDS011;10604;51.976;7.594;2022-09-09T03:37:36;3.88;;;2.70;;
20888;SDS011;10604;51.976;7.594;2022-09-09T03:40:04;4.53;;;3.20;;
20888;SDS011;10604;51.976;7.594;2022-09-09T03:42:29;3.47;;;2.83;;
20888;SDS011;10604;51.976;7.594;2022-09-09T03:45:15;4.97;;;3.20;;
20888;SDS011;10604;51.976;7.594;2022-09-09T03:47:40;4.43;;;2.97;;
20888;SDS011;10604;51.976;7.594;2022-09-09T03:50:06;3.90;;;2.93;;
20888;SDS011;10604;51.976;7.594;2022-09-09T03:52:38;2.83;;;2.30;;
20888;SDS011;10604;51.976;7.594;2022-09-09T03:55:04;4.67;;;3.10;;
20888;SDS011;10604;51.976;7.594;2022-09-09T03:57:30;3.63;;;2.65;;
20888;SDS011;10604;51.976;7.594;2022-09-09T03:59:59;3.10;;;2.80;;
20888;SDS011;10604;51.976;7.594;2022-09-09T04:02:26;3.15;;;2.72;;
20888;SDS011;10604;51.976;7.594;2022-09-09T04:04:51;3.80;;;2.70;;
20888;SDS011;10604;51.976;7.594;2022-09-09T04:07:16;3.07;;;2.70;;
20888;SDS011;10604;51.976;7.594;2022-09-09T04:09:42;3.53;;;2.90;;
20888;SDS011;10604;51.976;7.594;2022-09-09T04:12:07;4.03;;;3.03;;
20888;SDS011;10604;51.976;7.594;2022-09-09T04:14:33;3.20;;;2.90;;
20888;SDS011;10604;51.976;7.594;2022-09-09T04:16:58;3.60;;;2.80;;
20888;SDS011;10604;51.976;7.594;2022-09-09T04:19:24;4.23;;;3.00;;
20888;SDS011;10604;51.976;7.594;2022-09-09T04:21:50;3.67;;;2.80;;
20888;SDS011;10604;51.976;7.594;2022-09-09T04:24:16;3.00;;;2.60;;
20888;SDS011;10604;51.976;7.594;2022-09-09T04:26:42;4.05;;;3.00;;
20888;SDS011;10604;51.976;7.594;2022-09-09T04:29:07;3.70;;;2.70;;
20888;SDS011;10604;51.976;7.594;2022-09-09T04:31:33;2.93;;;2.53;;
20888;SDS011;10604;51.976;7.594;2022-09-09T04:33:58;6.20;;;3.00;;
20888;SDS011;10604;51.976;7.594;2022-09-09T04:36:27;3.83;;;3.17;;
20888;SDS011;10604;51.976;7.594;2022-09-09T04:38:52;3.05;;;2.75;;
20888;SDS011;10604;51.976;7.594;2022-09-09T04:41:18;4.30;;;2.90;;
20888;SDS011;10604;51.976;7.594;2022-09-09T04:43:43;3.57;;;2.40;;
20888;SDS011;10604;51.976;7.594;2022-09-09T04:46:09;3.28;;;2.65;;
20888;SDS011;10604;51.976;7.594;2022-09-09T04:48:35;4.00;;;2.60;;
20888;SDS011;10604;51.976;7.594;2022-09-09T04:51:02;4.90;;;2.80;;
20888;SDS011;10604;51.976;7.594;2022-09-09T04:53:29;3.60;;;2.58;;
20888;SDS011;10604;51.976;7.594;2022-09-09T04:56:06;3.80;;;2.83;;
20888;SDS011;10604;51.976;7.594;2022-09-09T04:58:35;3.67;;;2.70;;
20888;SDS011;10604;51.976;7.594;2022-09-09T05:01:15;5.60;;;2.53;;
20888;SDS011;10604;51.976;7.594;2022-09-09T05:03:43;3.85;;;2.58;;
20888;SDS011;10604;51.976;7.594;2022-09-09T05:06:11;3.22;;;2.50;;
20888;SDS011;10604;51.976;7.594;2022-09-09T05:08:39;3.90;;;2.57;;
20888;SDS011;10604;51.976;7.594;2022-09-09T05:13:41;4.60;;;2.40;;
20888;SDS011;10604;51.976;7.594;2022-09-09T05:16:06;5.23;;;2.23;;
20888;SDS011;10604;51.976;7.594;2022-09-09T05:18:32;3.27;;;2.27;;
20888;SDS011;10604;51.976;7.594;2022-09-09T05:21:00;3.75;;;2.30;;
20888;SDS011;10604;51.976;7.594;2022-09-09T05:23:25;4.25;;;2.00;;
20888;SDS011;10604;51.976;7.594;2022-09-09T05:25:57;3.37;;;2.10;;
20888;SDS011;10604;51.976;7.594;2022-09-09T05:28:24;4.57;;;2.10;;
20888;SDS011;10604;51.976;7.594;2022-09-09T05:31:00;2.90;;;1.93;;
20888;SDS011;10604;51.976;7.594;2022-09-09T05:33:30;3.20;;;1.77;;
20888;SDS011;10604;51.976;7.594;2022-09-09T05:36:00;3.20;;;1.77;;
20888;SDS011;10604;51.976;7.594;2022-09-09T05:38:29;3.28;;;1.70;;
20888;SDS011;10604;51.976;7.594;2022-09-09T05:40:55;5.07;;;2.03;;
20888;SDS011;10604;51.976;7.594;2022-09-09T05:43:22;4.00;;;2.15;;
20888;SDS011;10604;51.976;7.594;2022-09-09T05:45:48;3.83;;;1.80;;
20888;SDS011;10604;51.976;7.594;2022-09-09T05:48:30;4.75;;;1.90;;
20888;SDS011;10604;51.976;7.594;2022-09-09T05:50:57;2.97;;;2.15;;
20888;SDS011;10604;51.976;7.594;2022-09-09T05:53:24;6.47;;;2.15;;
20888;SDS011;10604;51.976;7.594;2022-09-09T05:55:50;3.55;;;2.10;;
20888;SDS011;10604;51.976;7.594;2022-09-09T05:58:15;3.97;;;2.20;;
20888;SDS011;10604;51.976;7.594;2022-09-09T06:00:42;3.42;;;1.60;;
20888;SDS011;10604;51.976;7.594;2022-09-09T06:03:10;5.35;;;2.00;;
20888;SDS011;10604;51.976;7.594;2022-09-09T06:05:36;3.35;;;1.92;;
20888;SDS011;10604;51.976;7.594;2022-09-09T06:08:02;3.20;;;1.67;;
20888;SDS011;10604;51.976;7.594;2022-09-09T06:10:28;3.67;;;1.90;;
20888;SDS011;10604;51.976;7.594;2022-09-09T06:12:53;4.97;;;1.93;;
20888;SDS011;10604;51.976;7.594;2022-09-09T06:15:18;4.60;;;2.10;;
20888;SDS011;10604;51.976;7.594;2022-09-09T06:17:44;4.13;;;1.93;;
20888;SDS011;10604;51.976;7.594;2022-09-09T06:20:10;4.15;;;1.83;;
20888;SDS011;10604;51.976;7.594;2022-09-09T06:22:35;4.80;;;1.90;;
20888;SDS011;10604;51.976;7.594;2022-09-09T06:25:01;4.60;;;2.15;;
20888;SDS011;10604;51.976;7.594;2022-09-09T06:27:27;5.40;;;1.70;;
20888;SDS011;10604;51.976;7.594;2022-09-09T06:29:53;3.65;;;1.70;;
20888;SDS011;10604;51.976;7.594;2022-09-09T06:32:19;5.93;;;1.90;;
20888;SDS011;10604;51.976;7.594;2022-09-09T06:34:44;4.70;;;1.87;;
20888;SDS011;10604;51.976;7.594;2022-09-09T06:37:10;3.85;;;1.90;;
20888;SDS011;10604;51.976;7.594;2022-09-09T06:39:35;4.83;;;1.70;;
20888;SDS011;10604;51.976;7.594;2022-09-09T06:42:01;4.20;;;1.77;;
20888;SDS011;10604;51.976;7.594;2022-09-09T06:44:26;3.90;;;1.60;;
20888;SDS011;10604;51.976;7.594;2022-09-09T06:46:52;5.43;;;1.90;;
20888;SDS011;10604;51.976;7.594;2022-09-09T06:49:17;5.20;;;1.77;;
20888;SDS011;10604;51.976;7.594;2022-09-09T06:51:43;6.90;;;1.90;;
20888;SDS011;10604;51.976;7.594;2022-09-09T06:54:09;5.50;;;2.00;;
20888;SDS011;10604;51.976;7.594;2022-09-09T06:56:36;4.60;;;1.88;;
20888;SDS011;10604;51.976;7.594;2022-09-09T06:59:07;4.22;;;1.90;;
20888;SDS011;10604;51.976;7.594;2022-09-09T07:01:37;4.97;;;1.80;;
20888;SDS011;10604;51.976;7.594;2022-09-09T07:04:08;4.68;;;2.00;;
20888;SDS011;10604;51.976;7.594;2022-09-09T07:06:44;4.70;;;2.28;;
20888;SDS011;10604;51.976;7.594;2022-09-09T07:09:14;3.60;;;1.60;;
20888;SDS011;10604;51.976;7.594;2022-09-09T07:11:42;5.88;;;1.80;;
20888;SDS011;10604;51.976;7.594;2022-09-09T07:14:11;5.55;;;1.70;;
20888;SDS011;10604;51.976;7.594;2022-09-09T07:16:39;4.57;;;1.88;;
20888;SDS011;10604;51.976;7.594;2022-09-09T07:19:08;5.07;;;1.73;;
20888;SDS011;10604;51.976;7.594;2022-09-09T07:21:33;6.53;;;1.85;;
20888;SDS011;10604;51.976;7.594;2022-09-09T07:23:59;4.40;;;1.90;;
20888;SDS011;10604;51.976;7.594;2022-09-09T07:26:26;4.57;;;1.90;;
20888;SDS011;10604;51.976;7.594;2022-09-09T07:28:53;4.25;;;1.70;;
20888;SDS011;10604;51.976;7.594;2022-09-09T07:31:30;4.60;;;1.95;;
20888;SDS011;10604;51.976;7.594;2022-09-09T07:33:58;3.63;;;1.83;;
20888;SDS011;10604;51.976;7.594;2022-09-09T07:36:28;4.82;;;1.90;;
20888;SDS011;10604;51.976;7.594;2022-09-09T07:39:04;5.85;;;1.80;;
20888;SDS011;10604;51.976;7.594;2022-09-09T07:41:43;4.72;;;1.80;;
20888;SDS011;10604;51.976;7.594;2022-09-09T07:44:11;6.22;;;1.85;;
20888;SDS011;10604;51.976;7.594;2022-09-09T07:46:39;5.68;;;2.08;;
20888;SDS011;10604;51.976;7.594;2022-09-09T07:49:06;6.00;;;1.90;;
20888;SDS011;10604;51.976;7.594;2022-09-09T07:51:33;5.30;;;1.80;;
20888;SDS011;10604;51.976;7.594;2022-09-09T07:54:02;5.47;;;1.90;;
20888;SDS011;10604;51.976;7.594;2022-09-09T07:56:31;5.27;;;1.80;;
20888;SDS011;10604;51.976;7.594;2022-09-09T07:58:56;3.63;;;1.65;;
20888;SDS011;10604;51.976;7.594;2022-09-09T08:01:25;7.03;;;1.80;;
20888;SDS011;10604;51.976;7.594;2022-09-09T08:03:57;6.60;;;1.90;;
20888;SDS011;10604;51.976;7.594;2022-09-09T08:06:26;6.22;;;2.10;;
20888;SDS011;10604;51.976;7.594;2022-09-09T08:08:56;3.72;;;1.77;;
20888;SDS011;10604;51.976;7.594;2022-09-09T08:11:22;4.90;;;2.00;;
20888;SDS011;10604;51.976;7.594;2022-09-09T08:13:49;6.57;;;2.45;;
20888;SDS011;10604;51.976;7.594;2022-09-09T08:16:18;5.10;;;1.90;;
20888;SDS011;10604;51.976;7.594;2022-09-09T08:18:48;6.77;;;1.97;;
20888;SDS011;10604;51.976;7.594;2022-09-09T08:21:18;5.50;;;2.00;;
20888;SDS011;10604;51.976;7.594;2022-09-09T08:23:50;7.50;;;1.90;;
20888;SDS011;10604;51.976;7.594;2022-09-09T08:26:20;3.47;;;1.80;;
20888;SDS011;10604;51.976;7.594;2022-09-09T08:28:49;4.57;;;1.90;;
20888;SDS011;10604;51.976;7.594;2022-09-09T08:31:17;5.70;;;1.80;;
20888;SDS011;10604;51.976;7.594;2022-09-09T08:33:46;5.10;;;1.80;;
20888;SDS011;10604;51.976;7.594;2022-09-09T08:36:12;6.90;;;1.73;;
20888;SDS011;10604;51.976;7.594;2022-09-09T08:38:40;6.10;;;2.25;;
20888;SDS011;10604;51.976;7.594;2022-09-09T08:43:37;6.43;;;2.10;;
20888;SDS011;10604;51.976;7.594;2022-09-09T08:46:11;6.78;;;2.13;;
20888;SDS011;10604;51.976;7.594;2022-09-09T08:51:45;3.03;;;1.83;;
20888;SDS011;10604;51.976;7.594;2022-09-09T08:54:12;7.57;;;2.72;;
20888;SDS011;10604;51.976;7.594;2022-09-09T08:56:38;4.93;;;2.55;;
20888;SDS011;10604;51.976;7.594;2022-09-09T08:59:03;8.87;;;2.57;;
20888;SDS011;10604;51.976;7.594;2022-09-09T09:01:34;5.88;;;2.28;;
20888;SDS011;10604;51.976;7.594;2022-09-09T09:04:10;5.38;;;2.40;;
20888;SDS011;10604;51.976;7.594;2022-09-09T09:12:24;5.68;;;1.77;;
20888;SDS011;10604;51.976;7.594;2022-09-09T09:14:53;5.13;;;1.95;;
20888;SDS011;10604;51.976;7.594;2022-09-09T09:17:20;5.20;;;1.73;;
20888;SDS011;10604;51.976;7.594;2022-09-09T09:19:48;5.97;;;1.80;;
20888;SDS011;10604;51.976;7.594;2022-09-09T09:30:05;4.28;;;1.65;;
20888;SDS011;10604;51.976;7.594;2022-09-09T09:32:40;5.60;;;1.60;;
20888;SDS011;10604;51.976;7.594;2022-09-09T09:35:13;4.97;;;1.50;;
20888;SDS011;10604;51.976;7.594;2022-09-09T09:37:39;5.93;;;1.45;;
20888;SDS011;10604;51.976;7.594;2022-09-09T09:40:23;5.37;;;1.80;;
20888;SDS011;10604;51.976;7.594;2022-09-09T09:42:59;4.70;;;1.60;;
20888;SDS011;10604;51.976;7.594;2022-09-09T09:47:57;7.77;;;1.97;;
20888;SDS011;10604;51.976;7.594;2022-09-09T09:50:24;6.60;;;1.75;;
20888;SDS011;10604;51.976;7.594;2022-09-09T09:52:56;6.47;;;1.80;;
20888;SDS011;10604;51.976;7.594;2022-09-09T09:55:23;4.60;;;1.70;;
20888;SDS011;10604;51.976;7.594;2022-09-09T09:57:50;4.03;;;1.98;;
20888;SDS011;10604;51.976;7.594;2022-09-09T10:00:17;5.30;;;1.80;;
20888;SDS011;10604;51.976;7.594;2022-09-09T10:02:48;3.97;;;1.90;;
20888;SDS011;10604;51.976;7.594;2022-09-09T10:05:20;4.07;;;1.80;;
20888;SDS011;10604;51.976;7.594;2022-09-09T10:19:33;5.43;;;2.20;;
20888;SDS011;10604;51.976;7.594;2022-09-09T10:30:18;3.60;;;1.83;;
20888;SDS011;10604;51.976;7.594;2022-09-09T10:41:10;6.68;;;2.42;;
20888;SDS011;10604;51.976;7.594;2022-09-09T10:43:57;5.10;;;2.20;;
20888;SDS011;10604;51.976;7.594;2022-09-09T10:54:56;5.47;;;2.50;;
20888;SDS011;10604;51.976;7.594;2022-09-09T10:57:46;3.55;;;2.08;;
20888;SDS011;10604;51.976;7.594;2022-09-09T11:02:44;5.75;;;2.33;;
20888;SDS011;10604;51.976;7.594;2022-09-09T11:05:36;5.70;;;2.10;;
20888;SDS011;10604;51.976;7.594;2022-09-09T11:08:11;4.93;;;2.10;;
20888;SDS011;10604;51.976;7.594;2022-09-09T11:10:58;4.50;;;2.40;;
20888;SDS011;10604;51.976;7.594;2022-09-09T11:13:49;4.13;;;2.38;;
20888;SDS011;10604;51.976;7.594;2022-09-09T11:16:30;5.50;;;2.70;;
20888;SDS011;10604;51.976;7.594;2022-09-09T11:18:59;6.15;;;2.92;;
20888;SDS011;10604;51.976;7.594;2022-09-09T11:21:32;5.53;;;2.88;;
20888;SDS011;10604;51.976;7.594;2022-09-09T11:24:03;8.02;;;2.67;;
20888;SDS011;10604;51.976;7.594;2022-09-09T11:26:38;5.18;;;2.05;;
20888;SDS011;10604;51.976;7.594;2022-09-09T11:32:52;4.88;;;1.90;;
20888;SDS011;10604;51.976;7.594;2022-09-09T11:38:46;4.53;;;1.77;;
20888;SDS011;10604;51.976;7.594;2022-09-09T11:41:17;5.15;;;1.50;;
20888;SDS011;10604;51.976;7.594;2022-09-09T11:43:49;5.57;;;1.80;;
20888;SDS011;10604;51.976;7.594;2022-09-09T11:46:17;4.60;;;1.80;;
20888;SDS011;10604;51.976;7.594;2022-09-09T11:48:58;3.05;;;1.83;;
20888;SDS011;10604;51.976;7.594;2022-09-09T11:51:29;5.32;;;1.90;;
20888;SDS011;10604;51.976;7.594;2022-09-09T11:53:59;4.78;;;2.03;;
20888;SDS011;10604;51.976;7.594;2022-09-09T11:56:48;4.38;;;1.80;;
20888;SDS011;10604;51.976;7.594;2022-09-09T11:59:32;3.97;;;1.90;;
20888;SDS011;10604;51.976;7.594;2022-09-09T12:01:59;4.05;;;1.83;;
20888;SDS011;10604;51.976;7.594;2022-09-09T12:04:39;4.50;;;1.70;;
20888;SDS011;10604;51.976;7.594;2022-09-09T12:12:54;5.20;;;1.33;;
20888;SDS011;10604;51.976;7.594;2022-09-09T12:17:54;4.35;;;1.30;;
20888;SDS011;10604;51.976;7.594;2022-09-09T12:20:31;3.20;;;1.23;;
20888;SDS011;10604;51.976;7.594;2022-09-09T12:25:48;3.83;;;1.40;;
20888;SDS011;10604;51.976;7.594;2022-09-09T12:28:45;3.25;;;1.10;;
20888;SDS011;10604;51.976;7.594;2022-09-09T12:34:14;1.85;;;0.90;;
20888;SDS011;10604;51.976;7.594;2022-09-09T12:36:43;2.33;;;1.10;;
20888;SDS011;10604;51.976;7.594;2022-09-09T12:39:22;3.63;;;1.23;;
20888;SDS011;10604;51.976;7.594;2022-09-09T12:41:55;2.72;;;1.10;;
20888;SDS011;10604;51.976;7.594;2022-09-09T12:44:24;2.15;;;1.40;;
20888;SDS011;10604;51.976;7.594;2022-09-09T12:46:52;2.58;;;1.30;;
20888;SDS011;10604;51.976;7.594;2022-09-09T12:51:53;3.88;;;1.70;;
20888;SDS011;10604;51.976;7.594;2022-09-09T12:54:22;4.30;;;1.30;;
20888;SDS011;10604;51.976;7.594;2022-09-09T12:56:48;2.85;;;1.27;;
20888;SDS011;10604;51.976;7.594;2022-09-09T12:59:25;3.92;;;1.55;;
20888;SDS011;10604;51.976;7.594;2022-09-09T13:01:59;2.85;;;1.38;;
20888;SDS011;10604;51.976;7.594;2022-09-09T13:04:25;4.97;;;1.30;;
20888;SDS011;10604;51.976;7.594;2022-09-09T13:06:51;1.75;;;1.00;;
20888;SDS011;10604;51.976;7.594;2022-09-09T13:09:17;3.40;;;1.40;;
20888;SDS011;10604;51.976;7.594;2022-09-09T13:11:44;3.83;;;1.40;;
20888;SDS011;10604;51.976;7.594;2022-09-09T13:14:19;2.72;;;1.33;;
20888;SDS011;10604;51.976;7.594;2022-09-09T13:17:00;2.90;;;1.30;;
20888;SDS011;10604;51.976;7.594;2022-09-09T13:19:29;2.17;;;1.15;;
20888;SDS011;10604;51.976;7.594;2022-09-09T13:21:59;2.22;;;1.40;;
20888;SDS011;10604;51.976;7.594;2022-09-09T13:24:32;4.57;;;1.65;;
20888;SDS011;10604;51.976;7.594;2022-09-09T13:27:00;4.45;;;1.52;;
20888;SDS011;10604;51.976;7.594;2022-09-09T13:29:28;6.10;;;1.60;;
20888;SDS011;10604;51.976;7.594;2022-09-09T13:31:54;4.57;;;1.58;;
20888;SDS011;10604;51.976;7.594;2022-09-09T13:34:33;3.95;;;1.58;;
20888;SDS011;10604;51.976;7.594;2022-09-09T13:37:01;4.63;;;1.40;;
20888;SDS011;10604;51.976;7.594;2022-09-09T13:39:31;2.90;;;1.35;;
20888;SDS011;10604;51.976;7.594;2022-09-09T13:41:59;4.45;;;1.50;;
20888;SDS011;10604;51.976;7.594;2022-09-09T13:44:27;4.78;;;1.20;;
20888;SDS011;10604;51.976;7.594;2022-09-09T13:47:03;3.00;;;1.20;;
20888;SDS011;10604;51.976;7.594;2022-09-09T13:49:29;3.30;;;1.10;;
20888;SDS011;10604;51.976;7.594;2022-09-09T13:54:52;2.67;;;1.13;;
20888;SDS011;10604;51.976;7.594;2022-09-09T13:57:20;3.88;;;1.02;;
20888;SDS011;10604;51.976;7.594;2022-09-09T13:59:47;2.90;;;1.10;;
20888;SDS011;10604;51.976;7.594;2022-09-09T14:02:14;2.23;;;1.20;;
20888;SDS011;10604;51.976;7.594;2022-09-09T14:04:41;1.85;;;0.90;;
20888;SDS011;10604;51.976;7.594;2022-09-09T14:07:14;1.85;;;0.95;;
20888;SDS011;10604;51.976;7.594;2022-09-09T14:09:41;3.67;;;1.00;;
20888;SDS011;10604;51.976;7.594;2022-09-09T14:12:13;2.00;;;0.88;;
20888;SDS011;10604;51.976;7.594;2022-09-09T14:14:40;2.50;;;1.10;;
20888;SDS011;10604;51.976;7.594;2022-09-09T14:17:07;2.60;;;1.08;;
20888;SDS011;10604;51.976;7.594;2022-09-09T14:19:32;3.83;;;1.40;;
20888;SDS011;10604;51.976;7.594;2022-09-09T14:21:58;2.27;;;1.20;;
20888;SDS011;10604;51.976;7.594;2022-09-09T14:24:23;1.63;;;0.90;;
20888;SDS011;10604;51.976;7.594;2022-09-09T14:26:50;2.42;;;1.10;;
20888;SDS011;10604;51.976;7.594;2022-09-09T14:29:15;2.43;;;1.10;;
20888;SDS011;10604;51.976;7.594;2022-09-09T14:31:40;3.30;;;1.10;;
20888;SDS011;10604;51.976;7.594;2022-09-09T14:34:06;3.10;;;1.20;;
20888;SDS011;10604;51.976;7.594;2022-09-09T14:36:31;1.23;;;0.80;;
20888;SDS011;10604;51.976;7.594;2022-09-09T14:38:57;1.97;;;0.90;;
20888;SDS011;10604;51.976;7.594;2022-09-09T14:41:23;2.28;;;0.70;;
20888;SDS011;10604;51.976;7.594;2022-09-09T14:43:50;2.08;;;0.82;;
20888;SDS011;10604;51.976;7.594;2022-09-09T14:46:17;3.58;;;1.00;;
20888;SDS011;10604;51.976;7.594;2022-09-09T14:48:44;3.13;;;0.98;;
20888;SDS011;10604;51.976;7.594;2022-09-09T14:51:14;2.70;;;1.20;;
20888;SDS011;10604;51.976;7.594;2022-09-09T14:53:47;3.47;;;1.40;;
20888;SDS011;10604;51.976;7.594;2022-09-09T14:56:16;1.95;;;1.10;;
20888;SDS011;10604;51.976;7.594;2022-09-09T14:58:43;3.20;;;1.30;;
20888;SDS011;10604;51.976;7.594;2022-09-09T15:01:10;2.13;;;1.20;;
20888;SDS011;10604;51.976;7.594;2022-09-09T15:03:40;2.05;;;1.23;;
20888;SDS011;10604;51.976;7.594;2022-09-09T15:06:11;1.85;;;1.10;;
20888;SDS011;10604;51.976;7.594;2022-09-09T15:08:39;2.50;;;1.40;;
20888;SDS011;10604;51.976;7.594;2022-09-09T15:11:06;2.58;;;1.30;;
20888;SDS011;10604;51.976;7.594;2022-09-09T15:13:33;2.97;;;1.50;;
20888;SDS011;10604;51.976;7.594;2022-09-09T15:16:31;2.97;;;1.33;;
20888;SDS011;10604;51.976;7.594;2022-09-09T15:18:53;3.63;;;1.20;;
20888;SDS011;10604;51.976;7.594;2022-09-09T15:21:21;1.52;;;1.10;;
20888;SDS011;10604;51.976;7.594;2022-09-09T15:23:49;2.00;;;0.90;;
20888;SDS011;10604;51.976;7.594;2022-09-09T15:26:14;3.70;;;1.20;;
20888;SDS011;10604;51.976;7.594;2022-09-09T15:28:41;3.05;;;1.27;;
20888;SDS011;10604;51.976;7.594;2022-09-09T15:33:37;2.30;;;1.30;;
20888;SDS011;10604;51.976;7.594;2022-09-09T15:38:42;4.47;;;1.38;;
20888;SDS011;10604;51.976;7.594;2022-09-09T15:41:09;2.38;;;1.10;;
20888;SDS011;10604;51.976;7.594;2022-09-09T15:43:35;3.03;;;1.30;;
20888;SDS011;10604;51.976;7.594;2022-09-09T15:46:05;2.23;;;1.20;;
20888;SDS011;10604;51.976;7.594;2022-09-09T15:48:49;2.90;;;1.40;;
20888;SDS011;10604;51.976;7.594;2022-09-09T15:51:15;3.63;;;1.50;;
20888;SDS011;10604;51.976;7.594;2022-09-09T15:53:41;4.70;;;1.47;;
20888;SDS011;10604;51.976;7.594;2022-09-09T15:56:06;2.20;;;1.20;;
20888;SDS011;10604;51.976;7.594;2022-09-09T15:58:32;1.87;;;1.40;;
20888;SDS011;10604;51.976;7.594;2022-09-09T16:01:04;2.65;;;1.50;;
20888;SDS011;10604;51.976;7.594;2022-09-09T16:03:37;2.65;;;1.60;;
20888;SDS011;10604;51.976;7.594;2022-09-09T16:06:05;4.43;;;1.70;;
20888;SDS011;10604;51.976;7.594;2022-09-09T16:08:31;2.90;;;1.50;;
20888;SDS011;10604;51.976;7.594;2022-09-09T16:11:03;4.27;;;1.70;;
20888;SDS011;10604;51.976;7.594;2022-09-09T16:13:32;4.25;;;1.40;;
20888;SDS011;10604;51.976;7.594;2022-09-09T16:15:58;2.78;;;1.42;;
20888;SDS011;10604;51.976;7.594;2022-09-09T16:18:24;3.83;;;1.40;;
20888;SDS011;10604;51.976;7.594;2022-09-09T16:20:55;3.33;;;1.70;;
20888;SDS011;10604;51.976;7.594;2022-09-09T16:23:21;4.45;;;1.35;;
20888;SDS011;10604;51.976;7.594;2022-09-09T16:25:55;4.57;;;1.70;;
20888;SDS011;10604;51.976;7.594;2022-09-09T16:28:21;4.90;;;1.77;;
20888;SDS011;10604;51.976;7.594;2022-09-09T16:30:47;4.60;;;2.00;;
20888;SDS011;10604;51.976;7.594;2022-09-09T16:33:13;5.32;;;1.98;;
20888;SDS011;10604;51.976;7.594;2022-09-09T16:35:39;5.50;;;1.77;;
20888;SDS011;10604;51.976;7.594;2022-09-09T16:38:05;4.25;;;1.58;;
20888;SDS011;10604;51.976;7.594;2022-09-09T16:40:33;3.65;;;1.40;;
20888;SDS011;10604;51.976;7.594;2022-09-09T16:42:59;3.13;;;1.70;;
20888;SDS011;10604;51.976;7.594;2022-09-09T16:45:26;3.33;;;1.55;;
20888;SDS011;10604;51.976;7.594;2022-09-09T16:47:51;2.72;;;1.50;;
20888;SDS011;10604;51.976;7.594;2022-09-09T16:50:17;5.10;;;2.93;;
20888;SDS011;10604;51.976;7.594;2022-09-09T16:52:43;3.53;;;2.10;;
20888;SDS011;10604;51.976;7.594;2022-09-09T16:55:08;4.03;;;1.70;;
20888;SDS011;10604;51.976;7.594;2022-09-09T16:57:34;3.75;;;1.75;;
20888;SDS011;10604;51.976;7.594;2022-09-09T16:59:59;3.20;;;1.73;;
20888;SDS011;10604;51.976;7.594;2022-09-09T17:02:26;3.83;;;1.80;;
20888;SDS011;10604;51.976;7.594;2022-09-09T17:04:51;4.82;;;1.70;;
20888;SDS011;10604;51.976;7.594;2022-09-09T17:07:17;3.43;;;1.60;;
20888;SDS011;10604;51.976;7.594;2022-09-09T17:09:44;2.75;;;1.60;;
20888;SDS011;10604;51.976;7.594;2022-09-09T17:12:10;2.72;;;1.38;;
20888;SDS011;10604;51.976;7.594;2022-09-09T17:14:37;3.90;;;1.30;;
20888;SDS011;10604;51.976;7.594;2022-09-09T17:17:02;2.90;;;1.27;;
20888;SDS011;10604;51.976;7.594;2022-09-09T17:19:29;2.67;;;1.20;;
20888;SDS011;10604;51.976;7.594;2022-09-09T17:21:55;2.97;;;1.10;;
20888;SDS011;10604;51.976;7.594;2022-09-09T17:24:22;1.77;;;1.10;;
20888;SDS011;10604;51.976;7.594;2022-09-09T17:26:47;2.05;;;1.20;;